createdAt,value
2023-05-12T00:00:29.732Z,7.45
2023-05-12T00:05:32.082Z,7.03
2023-05-12T00:10:35.653Z,8.38
2023-05-12T00:15:37.802Z,7.20
2023-05-12T00:20:39.999Z,6.30
2023-05-12T00:25:42.138Z,6.40
2023-05-12T00:30:44.378Z,6.22
2023-05-12T00:35:46.726Z,6.03
2023-05-12T00:40:48.856Z,4.88
2023-05-12T00:45:51.095Z,5.70
2023-05-12T00:50:55.603Z,6.15
2023-05-12T00:55:58.254Z,5.78
2023-05-12T01:01:02.332Z,5.63
2023-05-12T01:06:22.043Z,4.35
2023-05-12T01:11:24.431Z,5.45
2023-05-12T01:16:31.316Z,4.70
2023-05-12T01:21:34.067Z,3.88
2023-05-12T01:26:36.388Z,3.83
2023-05-12T01:31:39.186Z,4.40
2023-05-12T01:36:41.373Z,4.35
2023-05-12T01:41:43.733Z,3.92
2023-05-12T01:46:46.001Z,4.68
2023-05-12T01:51:48.823Z,4.68
2023-05-12T01:56:56.169Z,5.15
2023-05-12T02:01:58.878Z,5.20
2023-05-12T02:07:05.755Z,4.35
2023-05-12T02:12:08.744Z,6.03
2023-05-12T02:17:10.991Z,5.82
2023-05-12T02:22:13.452Z,4.78
2023-05-12T02:27:15.945Z,5.75
2023-05-12T02:32:18.368Z,6.05
2023-05-12T02:37:23.229Z,5.70
2023-05-12T02:42:28.734Z,5.90
2023-05-12T02:47:33.009Z,6.45
2023-05-12T02:52:35.539Z,5.47
2023-05-12T02:57:37.852Z,5.82
2023-05-12T03:02:41.419Z,6.80
2023-05-12T03:07:43.653Z,5.55
2023-05-12T03:12:45.847Z,4.70
2023-05-12T03:17:48.011Z,4.10
2023-05-12T03:22:50.500Z,4.10
2023-05-12T03:27:55.728Z,4.72
2023-05-12T03:32:57.961Z,5.05
2023-05-12T03:38:00.195Z,5.05
2023-05-12T03:43:02.546Z,4.10
2023-05-12T03:48:05.131Z,5.38
2023-05-12T03:53:07.276Z,5.15
2023-05-12T03:58:10.439Z,4.85
2023-05-12T04:03:12.663Z,5.43
2023-05-12T04:08:15.635Z,4.70
2023-05-12T04:13:17.984Z,4.50
2023-05-12T04:18:20.515Z,5.28
2023-05-12T04:23:23.402Z,5.15
2023-05-12T04:28:25.533Z,5.40
2023-05-12T04:33:28.089Z,5.88
2023-05-12T04:38:30.601Z,6.25
2023-05-12T04:48:41.924Z,5.25
2023-05-12T04:53:44.238Z,7.32
2023-05-12T04:58:46.858Z,7.72
2023-05-12T05:03:49.357Z,9.43
2023-05-12T05:08:53.345Z,9.00
2023-05-12T05:13:55.701Z,8.82
2023-05-12T05:18:58.763Z,8.80
2023-05-12T05:24:01.426Z,11.57
2023-05-12T05:29:05.014Z,12.45
2023-05-12T05:34:07.793Z,12.13
2023-05-12T05:39:10.493Z,13.00
2023-05-12T05:44:12.617Z,12.32
2023-05-12T05:49:14.931Z,12.52
2023-05-12T05:54:17.163Z,13.15
2023-05-12T05:59:20.609Z,12.27
2023-05-12T06:04:23.710Z,16.85
2023-05-12T06:09:26.667Z,15.13
2023-05-12T06:14:29.945Z,16.23
2023-05-12T06:19:32.104Z,17.27
2023-05-12T06:24:34.205Z,17.38
2023-05-12T06:29:36.366Z,15.63
2023-05-12T06:34:38.677Z,18.08
2023-05-12T06:39:41.183Z,17.83
2023-05-12T06:44:43.576Z,16.15
2023-05-12T06:49:46.261Z,18.75
2023-05-12T06:54:52.235Z,19.35
2023-05-12T06:59:54.789Z,21.15
2023-05-12T07:04:57.169Z,17.77
2023-05-12T07:09:59.343Z,20.70
2023-05-12T07:15:01.467Z,17.20
2023-05-12T07:20:04.903Z,19.80
2023-05-12T07:25:08.065Z,15.52
2023-05-12T07:30:11.203Z,14.27
2023-05-12T07:35:13.670Z,18.95
2023-05-12T07:40:15.788Z,16.02
2023-05-12T07:45:23.075Z,16.33
2023-05-12T07:50:25.780Z,14.55
2023-05-12T07:55:27.966Z,18.00
2023-05-12T08:00:30.058Z,17.88
2023-05-12T08:05:32.384Z,18.48
2023-05-12T08:10:34.478Z,17.92
2023-05-12T08:15:36.572Z,18.70
2023-05-12T08:20:38.696Z,15.27
2023-05-12T08:25:41.955Z,12.10
2023-05-12T08:30:45.154Z,10.55
2023-05-12T08:35:47.672Z,9.50
2023-05-12T08:41:21.865Z,8.57
2023-05-12T08:46:25.803Z,7.57
2023-05-12T08:51:29.389Z,6.75
2023-05-12T09:01:38.316Z,8.18
2023-05-12T09:06:44.277Z,7.97
2023-05-12T09:11:50.955Z,6.20
2023-05-12T09:17:02.809Z,7.50
2023-05-12T09:22:05.287Z,6.80
2023-05-12T09:27:07.675Z,5.57
2023-05-12T09:32:09.955Z,5.10
2023-05-12T09:37:15.188Z,4.60
2023-05-12T09:42:17.816Z,4.20
2023-05-12T09:47:19.972Z,3.80
2023-05-12T09:52:23.931Z,3.65
2023-05-12T09:57:26.316Z,3.10
2023-05-12T10:02:28.588Z,3.50
2023-05-12T10:07:31.816Z,3.10
2023-05-12T10:12:36.056Z,3.42
2023-05-12T10:17:40.809Z,3.17
2023-05-12T10:22:45.658Z,2.67
2023-05-12T10:27:48.606Z,2.50
2023-05-12T10:32:51.066Z,2.38
2023-05-12T10:37:56.604Z,2.42
2023-05-12T10:43:02.182Z,2.55
2023-05-12T10:48:07.288Z,2.58
2023-05-12T10:53:11.372Z,2.40
2023-05-12T10:58:14.430Z,2.60
2023-05-12T11:03:26.169Z,2.40
2023-05-12T11:08:30.518Z,2.83
2023-05-12T11:13:32.841Z,2.90
2023-05-12T11:18:35.011Z,2.63
2023-05-12T11:23:37.712Z,2.15
2023-05-12T11:28:40.760Z,2.60
2023-05-12T11:33:42.946Z,2.58
2023-05-12T11:38:50.307Z,2.78
2023-05-12T11:43:53.448Z,3.20
2023-05-12T11:49:00.216Z,3.00
2023-05-12T11:54:02.803Z,2.80
2023-05-12T11:59:05.967Z,2.58
2023-05-12T12:04:08.388Z,3.05
2023-05-12T12:09:10.743Z,3.10
2023-05-12T12:14:12.830Z,2.72
2023-05-12T12:19:14.935Z,3.15
2023-05-12T12:24:17.546Z,2.80
2023-05-12T12:29:19.832Z,2.97
2023-05-12T12:34:21.948Z,2.35
2023-05-12T12:39:24.239Z,2.40
2023-05-12T12:44:26.432Z,2.47
2023-05-12T12:49:28.661Z,2.53
2023-05-12T12:54:30.700Z,2.30
2023-05-12T12:59:33.697Z,2.50
2023-05-12T13:04:35.772Z,2.10
2023-05-12T13:09:37.849Z,2.10
2023-05-12T13:14:39.950Z,2.58
2023-05-12T13:19:43.339Z,1.90
2023-05-12T13:24:45.485Z,1.95
2023-05-12T13:29:47.894Z,2.00
2023-05-12T13:34:50.095Z,1.80
2023-05-12T13:39:52.618Z,1.67
2023-05-12T13:44:54.780Z,2.05
2023-05-12T13:49:57.304Z,1.77
2023-05-12T13:54:59.453Z,2.20
2023-05-12T14:00:02.052Z,2.00
2023-05-12T14:05:04.700Z,1.90
2023-05-12T14:10:07.269Z,1.63
2023-05-12T14:15:24.022Z,1.92
2023-05-12T14:20:32.243Z,2.20
2023-05-12T14:25:34.277Z,2.20
2023-05-12T14:30:37.310Z,2.53
2023-05-12T14:35:39.832Z,2.40
2023-05-12T14:40:42.782Z,2.17
2023-05-12T14:45:48.762Z,1.83
2023-05-12T14:50:55.356Z,2.03
2023-05-12T14:55:57.536Z,1.75
2023-05-12T15:01:05.096Z,2.20
2023-05-12T15:06:12.797Z,1.98
2023-05-12T15:11:17.425Z,1.67
2023-05-12T15:16:20.520Z,1.98
2023-05-12T15:21:23.321Z,2.28
2023-05-12T15:26:33.706Z,1.83
2023-05-12T15:31:37.117Z,2.40
2023-05-12T15:36:39.676Z,2.30
2023-05-12T15:41:42.992Z,2.42
2023-05-12T15:46:45.655Z,2.10
2023-05-12T15:51:47.992Z,2.03
2023-05-12T15:56:50.275Z,2.00
2023-05-12T16:01:52.817Z,2.15
2023-05-12T16:06:57.075Z,2.13
2023-05-12T16:11:59.187Z,2.35
2023-05-12T16:17:02.709Z,2.55
2023-05-12T16:22:05.315Z,2.70
2023-05-12T16:27:07.507Z,2.42
2023-05-12T16:32:09.797Z,2.63
2023-05-12T16:37:12.547Z,2.33
2023-05-12T16:42:15.408Z,2.70
2023-05-12T16:47:17.539Z,2.30
2023-05-12T16:52:20.137Z,2.63
2023-05-12T16:57:24.501Z,2.25
2023-05-12T17:02:26.793Z,2.53
2023-05-12T17:07:28.984Z,3.15
2023-05-12T17:12:31.138Z,2.90
2023-05-12T17:17:33.698Z,3.13
2023-05-12T17:22:41.234Z,3.53
2023-05-12T17:27:43.761Z,4.00
2023-05-12T17:32:46.494Z,3.83
2023-05-12T17:37:51.763Z,4.40
2023-05-12T17:42:56.846Z,5.10
2023-05-12T17:47:59.836Z,5.00
2023-05-12T17:53:02.126Z,5.07
2023-05-12T17:58:04.143Z,5.35
2023-05-12T18:03:06.436Z,5.35
2023-05-12T18:08:08.787Z,5.30
2023-05-12T18:13:10.871Z,5.30
2023-05-12T18:18:14.432Z,5.53
2023-05-12T18:23:16.715Z,5.45
2023-05-12T18:28:19.125Z,5.68
2023-05-12T18:33:21.381Z,5.85
2023-05-12T18:38:24.110Z,6.13
2023-05-12T18:43:26.684Z,5.75
2023-05-12T18:48:28.826Z,6.90
2023-05-12T18:53:31.006Z,5.95
2023-05-12T18:58:33.225Z,6.00
2023-05-12T19:03:35.687Z,6.70
2023-05-12T19:08:37.979Z,6.00
2023-05-12T19:13:42.560Z,6.55
2023-05-12T19:18:46.599Z,6.13
2023-05-12T19:23:49.081Z,6.32
2023-05-12T19:28:51.329Z,6.47
2023-05-12T19:33:54.290Z,6.72
2023-05-12T19:38:59.439Z,6.75
2023-05-12T19:44:01.627Z,6.95
2023-05-12T19:49:05.833Z,6.63
2023-05-12T19:54:09.620Z,7.45
2023-05-12T19:59:11.779Z,6.95
2023-05-12T20:04:14.181Z,7.63
2023-05-12T20:09:16.358Z,7.93
2023-05-12T20:14:18.594Z,7.28
2023-05-12T20:19:20.700Z,7.40
2023-05-12T20:24:23.079Z,8.65
2023-05-12T20:29:25.947Z,9.38
2023-05-12T20:34:28.341Z,6.90
2023-05-12T20:39:30.390Z,7.80
2023-05-12T20:44:32.553Z,8.40
2023-05-12T20:49:34.666Z,8.85
2023-05-12T20:54:36.717Z,7.63
2023-05-12T20:59:38.924Z,7.60
2023-05-12T21:04:41.062Z,7.70
2023-05-12T21:09:44.584Z,8.68
2023-05-12T21:14:46.832Z,9.40
2023-05-12T21:19:48.945Z,9.20
2023-05-12T21:24:51.727Z,9.57
2023-05-12T21:29:54.258Z,8.70
2023-05-12T21:34:57.150Z,10.05
2023-05-12T21:39:59.463Z,9.00
2023-05-12T21:45:01.852Z,10.32
2023-05-12T21:50:04.494Z,9.75
2023-05-12T21:55:06.993Z,9.80
2023-05-12T22:00:10.728Z,10.43
2023-05-12T22:05:13.164Z,7.82
2023-05-12T22:10:15.578Z,10.95
2023-05-12T22:15:18.264Z,12.63
2023-05-12T22:20:20.935Z,12.63
2023-05-12T22:25:23.588Z,10.00
2023-05-12T22:30:26.045Z,12.35
2023-05-12T22:35:28.256Z,12.38
2023-05-12T22:40:30.711Z,11.60
2023-05-12T22:45:32.868Z,9.68
2023-05-12T22:50:35.270Z,10.75
2023-05-12T22:55:37.425Z,10.32
2023-05-12T23:00:39.520Z,10.90
2023-05-12T23:05:41.640Z,11.20
2023-05-12T23:10:43.702Z,9.18
2023-05-12T23:15:45.801Z,9.75
2023-05-12T23:20:47.808Z,9.27
2023-05-12T23:25:49.917Z,10.65
2023-05-12T23:30:51.974Z,9.98
2023-05-12T23:35:56.876Z,9.73
2023-05-12T23:40:58.931Z,9.82
2023-05-12T23:46:01.330Z,9.57
2023-05-12T23:51:03.571Z,9.77
2023-05-12T23:56:06.169Z,10.15
